Time;durP1;ratioP1;P1;durP2;ratioP2;P2;SDS_P1;SDS_P2;PMS_P1;PMS_P2;Temp;Humidity;BMP_temperature;BMP_pressure;BME280_temperature;BME280_humidity;BME280_pressure;Samples;Min_cycle;Max_cycle;Signal;HPM_P1;HPM_P2
2023/03/07 00:01:56;;;;;;;21.27;10.13;;;;;;;3.53;100.00;99492.81;5089396;28;20040;-50
2023/03/07 00:04:23;;;;;;;20.92;10.40;;;;;;;3.52;100.00;99491.19;5089854;28;20075;-50
2023/03/07 00:06:50;;;;;;;22.05;11.13;;;;;;;3.52;100.00;99491.19;5089917;28;20052;-49
2023/03/07 00:09:17;;;;;;;21.02;10.38;;;;;;;3.45;100.00;99470.75;5078873;28;20061;-50
2023/03/07 00:11:43;;;;;;;21.77;9.80;;;;;;;3.36;100.00;99496.97;5071977;28;20512;-51
2023/03/07 00:14:10;;;;;;;25.10;11.25;;;;;;;3.45;100.00;99480.41;5088050;28;20040;-50
2023/03/07 00:16:37;;;;;;;24.65;11.60;;;;;;;3.46;100.00;99474.22;5089833;28;20485;-49
2023/03/07 00:19:04;;;;;;;23.55;10.57;;;;;;;3.43;100.00;99472.69;5089526;28;20401;-49
2023/03/07 00:21:31;;;;;;;29.27;11.90;;;;;;;3.49;100.00;99473.09;5081956;28;20049;-51
2023/03/07 00:23:58;;;;;;;21.70;9.48;;;;;;;3.56;100.00;99471.56;5075740;28;20044;-50
2023/03/07 00:26:26;;;;;;;31.45;12.27;;;;;;;3.53;100.00;99470.06;5075778;28;20048;-49
2023/03/07 00:28:53;;;;;;;25.70;11.75;;;;;;;3.43;100.00;99474.50;5075788;28;20496;-50
2023/03/07 00:31:22;;;;;;;30.45;13.00;;;;;;;3.39;100.00;99460.84;5075568;28;20090;-49
2023/03/07 00:33:48;;;;;;;26.58;11.35;;;;;;;3.37;100.00;99459.31;5075428;28;20443;-50
2023/03/07 00:36:18;;;;;;;24.70;10.95;;;;;;;3.29;100.00;99456.56;5074486;28;20052;-52
2023/03/07 00:38:45;;;;;;;27.10;11.80;;;;;;;3.27;100.00;99459.31;5075896;28;20044;-49
2023/03/07 00:41:15;;;;;;;32.60;13.57;;;;;;;3.30;100.00;99459.03;5075563;28;20048;-49
2023/03/07 00:43:42;;;;;;;28.92;11.80;;;;;;;3.23;100.00;99450.91;5075621;28;20052;-50
2023/03/07 00:46:09;;;;;;;29.88;13.63;;;;;;;3.36;100.00;99461.09;5074342;28;20106;-50
2023/03/07 00:48:38;;;;;;;26.23;10.63;;;;;;;3.41;100.00;99456.28;5074490;28;20505;-50
2023/03/07 00:51:07;;;;;;;33.78;13.98;;;;;;;3.35;100.00;99456.03;5075097;28;20076;-49
2023/03/07 00:53:35;;;;;;;34.83;13.77;;;;;;;3.29;100.00;99453.94;5075681;28;20048;-50
2023/03/07 00:56:06;;;;;;;34.72;13.75;;;;;;;3.41;100.00;99451.03;5075131;28;20063;-51
2023/03/07 00:58:35;;;;;;;34.58;13.85;;;;;;;3.47;100.00;99452.25;5075722;28;20131;-49
2023/03/07 01:01:04;;;;;;;39.47;15.18;;;;;;;3.31;100.00;99446.75;5074494;28;20049;-49
2023/03/07 01:03:32;;;;;;;31.90;12.45;;;;;;;3.30;100.00;99445.13;5075344;28;20044;-52
2023/03/07 01:06:06;;;;;;;39.03;16.00;;;;;;;3.40;100.00;99446.78;5074915;28;20417;-50
2023/03/07 01:08:33;;;;;;;33.75;14.27;;;;;;;3.40;100.00;99448.53;5075042;28;20444;-50
2023/03/07 01:11:02;;;;;;;33.35;14.25;;;;;;;3.22;100.00;99430.91;5074324;28;20072;-50
2023/03/07 01:13:30;;;;;;;40.85;14.57;;;;;;;3.28;100.00;99444.44;5075025;28;20048;-52
2023/03/07 01:16:17;;;;;;;32.58;12.98;;;;;;;3.39;100.00;99439.03;5075000;28;20096;-49
2023/03/07 01:18:48;;;;;;;38.50;15.80;;;;;;;3.49;100.00;99437.22;5074885;28;20072;-49
2023/03/07 01:21:19;;;;;;;39.30;14.02;;;;;;;3.50;100.00;99436.25;5074662;28;20040;-50
2023/03/07 01:23:46;;;;;;;33.80;14.32;;;;;;;3.45;100.00;99430.59;5074735;28;20049;-52
2023/03/07 01:26:16;;;;;;;37.67;15.00;;;;;;;3.48;100.00;99438.19;5074541;28;20433;-50
2023/03/07 01:28:43;;;;;;;30.20;13.35;;;;;;;3.50;100.00;99435.44;5074721;28;20119;-51
2023/03/07 01:31:11;;;;;;;37.05;13.93;;;;;;;3.37;100.00;99433.09;5074699;28;20426;-52
2023/03/07 01:33:39;;;;;;;29.17;12.80;;;;;;;3.49;100.00;99433.78;5073298;28;20045;-48
2023/03/07 01:36:29;;;;;;;19.23;8.60;;;;;;;3.48;100.00;99432.13;5074786;28;20072;-51
2023/03/07 01:39:05;;;;;;;26.05;10.80;;;;;;;3.39;100.00;99425.94;5074134;28;20123;-51
2023/03/07 01:41:36;;;;;;;24.15;10.35;;;;;;;3.48;100.00;99421.66;5074540;28;20109;-49
2023/03/07 01:44:14;;;;;;;21.90;10.18;;;;;;;3.47;100.00;99426.03;5074157;28;20036;-50
2023/03/07 01:46:45;;;;;;;23.63;10.25;;;;;;;3.50;100.00;99419.72;5074513;28;20524;-51
2023/03/07 01:49:19;;;;;;;20.08;9.65;;;;;;;3.54;100.00;99424.50;5073932;28;20413;-50
2023/03/07 01:51:53;;;;;;;21.80;9.77;;;;;;;3.62;100.00;99423.78;5074453;28;20048;-49
2023/03/07 01:54:21;;;;;;;18.70;8.60;;;;;;;3.60;100.00;99420.50;5074307;28;20131;-51
2023/03/07 01:56:51;;;;;;;19.65;8.85;;;;;;;3.60;100.00;99408.22;5074130;28;20083;-50
2023/03/07 01:59:27;;;;;;;22.40;7.60;;;;;;;3.60;100.00;99413.47;5073669;28;20549;-50
2023/03/07 02:01:54;;;;;;;16.95;7.97;;;;;;;3.54;100.00;99405.34;5073754;28;20044;-51
2023/03/07 02:04:38;;;;;;;13.60;7.38;;;;;;;3.63;100.00;99412.34;5073952;28;20041;-56
2023/03/07 02:07:09;;;;;;;13.70;6.93;;;;;;;3.64;100.00;99403.53;5073982;28;20044;-51
2023/03/07 02:09:37;;;;;;;11.73;5.68;;;;;;;3.58;100.00;99396.22;5068664;28;20056;-50
2023/03/07 02:12:06;;;;;;;13.93;6.78;;;;;;;3.51;100.00;99395.13;5059178;28;20044;-50
2023/03/07 02:14:33;;;;;;;12.55;6.30;;;;;;;3.57;100.00;99391.94;5073807;28;20643;-50
2023/03/07 02:17:01;;;;;;;12.23;6.63;;;;;;;3.52;100.00;99388.91;5073654;28;20052;-52
2023/03/07 02:19:41;;;;;;;11.95;6.38;;;;;;;3.60;100.00;99389.03;5073674;28;20063;-49
2023/03/07 02:22:11;;;;;;;13.23;6.13;;;;;;;3.67;100.00;99395.34;5073627;28;20045;-49
2023/03/07 02:25:01;;;;;;;12.13;6.43;;;;;;;3.46;100.00;99382.44;5073513;28;20051;-53
2023/03/07 02:27:33;;;;;;;12.23;6.35;;;;;;;3.43;100.00;99385.34;5073295;28;20072;-49
2023/03/07 02:30:00;;;;;;;13.93;6.40;;;;;;;3.55;100.00;99383.41;5073595;28;20037;-48
2023/03/07 02:32:27;;;;;;;12.80;6.53;;;;;;;3.40;100.00;99385.63;5073150;28;20555;-50
2023/03/07 02:34:54;;;;;;;11.65;6.22;;;;;;;3.46;100.00;99370.16;5073211;28;20055;-48
2023/03/07 02:37:30;;;;;;;14.05;6.05;;;;;;;3.45;100.00;99367.69;5072156;28;20513;-50
2023/03/07 02:40:04;;;;;;;12.85;6.45;;;;;;;3.45;100.00;99368.50;5073532;28;20071;-49
2023/03/07 02:42:34;;;;;;;12.15;5.68;;;;;;;3.42;100.00;99374.03;5073308;28;20070;-49
2023/03/07 02:45:09;;;;;;;12.48;6.30;;;;;;;3.40;100.00;99364.66;5072099;28;20132;-49
2023/03/07 02:47:37;;;;;;;12.00;5.97;;;;;;;3.42;100.00;99362.72;5073377;28;20055;-50
2023/03/07 02:50:05;;;;;;;11.32;5.88;;;;;;;3.32;100.00;99351.44;5073151;28;20041;-48
2023/03/07 02:52:33;;;;;;;11.02;5.80;;;;;;;3.43;100.00;99354.69;5073485;28;20048;-49
2023/03/07 02:55:00;;;;;;;11.77;6.18;;;;;;;3.33;100.00;99351.31;5072140;28;20052;-48
2023/03/07 02:57:32;;;;;;;14.80;6.18;;;;;;;3.49;100.00;99358.56;5072855;28;20048;-49
2023/03/07 02:59:59;;;;;;;12.75;6.50;;;;;;;3.45;100.00;99354.56;5072959;28;20048;-48
2023/03/07 03:02:26;;;;;;;14.65;6.63;;;;;;;3.42;100.00;99354.84;5072899;28;20516;-49
2023/03/07 03:04:53;;;;;;;14.90;7.00;;;;;;;3.31;100.00;99345.38;5072919;28;20406;-49
2023/03/07 03:07:22;;;;;;;14.52;7.43;;;;;;;3.44;100.00;99351.13;5073110;28;20135;-50
2023/03/07 03:09:48;;;;;;;16.00;7.70;;;;;;;3.58;100.00;99349.81;5072716;28;20045;-48
2023/03/07 03:12:15;;;;;;;19.25;8.85;;;;;;;3.56;100.00;99346.53;5073073;28;20202;-48
2023/03/07 03:14:42;;;;;;;18.33;9.00;;;;;;;3.55;100.00;99344.88;5072974;28;20048;-49
2023/03/07 03:17:09;;;;;;;16.75;8.70;;;;;;;3.44;100.00;99345.88;5073212;28;20083;-49
2023/03/07 03:19:36;;;;;;;22.23;10.40;;;;;;;3.55;100.00;99338.81;5073045;28;20045;-50
2023/03/07 03:22:03;;;;;;;19.25;10.30;;;;;;;3.62;100.00;99339.88;5072542;28;20040;-49
2023/03/07 03:24:39;;;;;;;22.17;10.95;;;;;;;3.45;100.00;99341.47;5073008;28;20048;-50
2023/03/07 03:27:07;;;;;;;20.80;10.50;;;;;;;3.62;100.00;99345.97;5072875;28;20048;-49
2023/03/07 03:29:34;;;;;;;23.42;11.23;;;;;;;3.57;100.00;99340.31;5072850;28;20048;-50
2023/03/07 03:32:03;;;;;;;23.10;11.15;;;;;;;3.58;100.00;99338.53;5072968;28;20045;-49
2023/03/07 03:34:30;;;;;;;23.77;10.93;;;;;;;3.52;100.00;99332.06;5072880;28;20135;-48
2023/03/07 03:36:57;;;;;;;23.92;11.55;;;;;;;3.51;100.00;99334.81;5072998;28;20045;-50
2023/03/07 03:39:24;;;;;;;23.17;11.35;;;;;;;3.55;100.00;99330.97;5072778;28;20051;-50
2023/03/07 03:41:55;;;;;;;22.40;11.95;;;;;;;3.55;100.00;99330.97;5072802;28;20101;-47
2023/03/07 03:44:22;;;;;;;20.23;10.63;;;;;;;3.58;100.00;99328.03;5072778;28;20052;-48
2023/03/07 03:46:49;;;;;;;18.50;9.50;;;;;;;3.54;100.00;99334.53;5072756;28;20060;-49
2023/03/07 03:49:19;;;;;;;23.38;11.35;;;;;;;3.46;100.00;99319.53;5072758;28;20051;-49
2023/03/07 03:51:48;;;;;;;23.35;11.93;;;;;;;3.50;100.00;99314.81;5055462;28;20470;-47
2023/03/07 03:54:16;;;;;;;22.23;11.02;;;;;;;3.50;100.00;99317.44;5072874;28;20055;-51
2023/03/07 03:56:43;;;;;;;25.40;12.13;;;;;;;3.54;100.00;99317.00;5073859;28;20462;-49
2023/03/07 03:59:10;;;;;;;23.08;11.40;;;;;;;3.51;100.00;99314.69;5076135;28;20044;-49
2023/03/07 04:01:36;;;;;;;23.92;11.07;;;;;;;3.51;100.00;99311.22;5075610;28;20051;-49
2023/03/07 04:04:04;;;;;;;26.73;11.50;;;;;;;3.45;100.00;99300.31;5076440;28;20154;-50
2023/03/07 04:06:33;;;;;;;22.50;11.82;;;;;;;3.47;100.00;99300.19;5075289;28;20044;-48
2023/03/07 04:09:02;;;;;;;25.13;11.90;;;;;;;3.54;100.00;99297.81;5074837;28;20127;-49
2023/03/07 04:11:28;;;;;;;23.30;11.98;;;;;;;3.54;100.00;99298.66;5056179;28;20076;-49
2023/03/07 04:13:55;;;;;;;23.45;12.75;;;;;;;3.49;100.00;99295.63;5075357;28;20409;-48
2023/03/07 04:16:22;;;;;;;25.17;12.68;;;;;;;3.55;100.00;99294.25;5075981;28;20049;-48
2023/03/07 04:18:51;;;;;;;21.73;11.07;;;;;;;3.42;100.00;99291.91;5075977;28;20036;-48
2023/03/07 04:21:18;;;;;;;21.05;9.52;;;;;;;3.42;100.00;99289.31;5076097;28;20040;-48
2023/03/07 04:23:48;;;;;;;26.42;11.70;;;;;;;3.36;100.00;99287.25;5075759;28;20049;-49
2023/03/07 04:26:15;;;;;;;26.40;12.65;;;;;;;3.30;100.00;99280.81;5072087;28;20049;-48
2023/03/07 04:28:43;;;;;;;20.73;9.95;;;;;;;3.32;100.00;99273.63;5074093;28;20401;-48
2023/03/07 04:31:18;;;;;;;23.48;11.18;;;;;;;3.30;100.00;99278.19;5074970;28;20044;-49
2023/03/07 04:33:46;;;;;;;24.90;11.93;;;;;;;3.30;100.00;99274.75;5075391;28;20047;-49
2023/03/07 04:36:15;;;;;;;23.60;11.80;;;;;;;3.38;100.00;99273.03;5075578;28;20048;-51
2023/03/07 04:38:42;;;;;;;26.00;12.20;;;;;;;3.55;100.00;99266.22;5075471;28;20379;-50
2023/03/07 04:41:13;;;;;;;25.55;12.73;;;;;;;3.48;100.00;99269.56;5075108;28;20444;-49
2023/03/07 04:43:41;;;;;;;25.40;11.98;;;;;;;3.42;100.00;99261.31;5075396;28;20067;-50
2023/03/07 04:46:10;;;;;;;24.90;12.98;;;;;;;3.52;100.00;99263.06;5075680;28;20098;-50
2023/03/07 04:48:37;;;;;;;24.83;13.00;;;;;;;3.50;100.00;99255.34;5075632;28;20052;-49
2023/03/07 04:51:05;;;;;;;27.15;12.60;;;;;;;3.44;100.00;99256.75;5075033;28;20032;-50
2023/03/07 04:53:32;;;;;;;25.42;13.07;;;;;;;3.37;100.00;99255.66;5075603;28;20098;-50
2023/03/07 04:56:01;;;;;;;26.80;13.88;;;;;;;3.39;100.00;99258.16;5075542;28;20049;-48
2023/03/07 04:58:30;;;;;;;24.33;13.00;;;;;;;3.39;100.00;99258.16;5074970;28;20406;-49
2023/03/07 05:00:59;;;;;;;28.20;13.88;;;;;;;3.33;100.00;99245.59;5074462;28;20130;-50
2023/03/07 05:03:26;;;;;;;28.52;13.80;;;;;;;3.40;100.00;99244.91;5075332;28;20482;-51
2023/03/07 05:05:53;;;;;;;30.75;14.55;;;;;;;3.44;100.00;99248.06;5074844;28;20123;-52
2023/03/07 05:08:21;;;;;;;27.58;13.80;;;;;;;3.42;100.00;99242.97;5074771;28;20045;-49
2023/03/07 05:10:49;;;;;;;28.77;14.27;;;;;;;3.61;100.00;99243.84;5074440;28;20052;-50
2023/03/07 05:13:15;;;;;;;32.92;14.70;;;;;;;3.52;100.00;99240.28;5074930;28;20041;-51
2023/03/07 05:15:42;;;;;;;27.48;13.70;;;;;;;3.36;100.00;99235.66;5075059;28;20068;-48
2023/03/07 05:18:09;;;;;;;30.85;14.25;;;;;;;3.20;100.00;99232.81;5075017;28;20041;-48
2023/03/07 05:20:35;;;;;;;24.95;13.20;;;;;;;3.08;100.00;99233.00;5074487;28;20457;-48
2023/03/07 05:23:02;;;;;;;28.58;13.77;;;;;;;3.14;100.00;99231.59;5074390;28;20551;-49
2023/03/07 05:25:29;;;;;;;32.80;14.32;;;;;;;3.19;100.00;99226.75;5074499;28;20441;-49
2023/03/07 05:27:56;;;;;;;31.50;15.80;;;;;;;3.16;100.00;99227.03;5074661;28;20048;-49
2023/03/07 05:30:22;;;;;;;31.00;14.98;;;;;;;3.17;100.00;99225.25;5074790;28;20106;-48
2023/03/07 05:32:50;;;;;;;33.25;14.98;;;;;;;3.15;100.00;99222.78;5074731;28;20500;-49
2023/03/07 05:35:17;;;;;;;29.75;14.85;;;;;;;3.16;100.00;99221.78;5074306;28;20409;-50
2023/03/07 05:37:45;;;;;;;29.50;14.00;;;;;;;3.19;100.00;99218.09;5074551;28;20044;-49
2023/03/07 05:40:12;;;;;;;28.55;14.05;;;;;;;3.31;100.00;99210.84;5074384;28;20048;-51
2023/03/07 05:42:43;;;;;;;29.30;13.85;;;;;;;3.33;100.00;99217.63;5074239;28;20044;-49
2023/03/07 05:45:10;;;;;;;30.90;14.05;;;;;;;3.32;100.00;99220.38;5074478;28;20461;-49
2023/03/07 05:47:37;;;;;;;28.67;13.02;;;;;;;3.41;100.00;99220.31;5074438;28;20063;-49
2023/03/07 05:50:08;;;;;;;27.25;14.35;;;;;;;3.39;100.00;99226.69;5074389;28;20075;-50
2023/03/07 05:52:35;;;;;;;27.23;12.95;;;;;;;3.28;100.00;99225.09;5074220;28;20119;-50
2023/03/07 05:55:03;;;;;;;28.60;13.70;;;;;;;3.42;100.00;99227.22;5073948;28;20052;-51
2023/03/07 05:57:30;;;;;;;26.65;13.10;;;;;;;3.37;100.00;99218.16;5073858;28;20040;-51
2023/03/07 05:59:57;;;;;;;30.05;14.20;;;;;;;3.25;100.00;99210.44;5073400;28;20127;-50
2023/03/07 06:02:24;;;;;;;27.25;12.75;;;;;;;3.17;100.00;99210.34;5073740;28;20466;-51
2023/03/07 06:04:51;;;;;;;35.03;15.05;;;;;;;3.24;100.00;99210.63;5074078;28;20071;-50
2023/03/07 06:07:17;;;;;;;29.50;14.85;;;;;;;3.31;100.00;99201.22;5073980;28;20570;-50
2023/03/07 06:09:45;;;;;;;35.45;15.13;;;;;;;3.41;100.00;99212.47;5073560;28;20053;-50
2023/03/07 06:12:13;;;;;;;36.53;15.73;;;;;;;3.36;100.00;99206.00;5073476;28;20049;-51
2023/03/07 06:14:40;;;;;;;29.85;14.40;;;;;;;3.34;100.00;99206.13;5073694;28;20063;-50
2023/03/07 06:17:06;;;;;;;24.50;12.10;;;;;;;3.39;100.00;99200.47;5073874;28;20052;-49
2023/03/07 06:19:33;;;;;;;37.13;14.32;;;;;;;3.55;100.00;99200.66;5073242;28;20490;-49
2023/03/07 06:22:00;;;;;;;29.63;15.05;;;;;;;3.55;100.00;99200.66;5073937;28;20040;-50
2023/03/07 06:24:28;;;;;;;30.17;15.43;;;;;;;3.50;100.00;99202.91;5073336;28;20083;-51
2023/03/07 06:26:55;;;;;;;33.22;13.90;;;;;;;3.51;100.00;99201.94;5069738;28;20044;-48
2023/03/07 06:29:23;;;;;;;28.70;13.52;;;;;;;3.62;100.00;99187.78;5072844;28;20441;-51
2023/03/07 06:31:51;;;;;;;30.30;14.20;;;;;;;3.58;100.00;99199.53;5073621;28;20040;-50
2023/03/07 06:34:18;;;;;;;26.15;13.18;;;;;;;3.54;100.00;99199.00;5073311;28;20044;-50
2023/03/07 06:36:47;;;;;;;33.80;15.32;;;;;;;3.52;100.00;99189.66;5073516;28;20127;-49
2023/03/07 06:39:19;;;;;;;32.28;14.52;;;;;;;3.55;100.00;99187.56;5072992;28;20047;-49
2023/03/07 06:41:49;;;;;;;33.83;16.38;;;;;;;3.55;100.00;99184.13;5073053;28;20040;-49
2023/03/07 06:44:16;;;;;;;26.70;13.80;;;;;;;3.57;100.00;99197.91;5072346;28;20494;-50
2023/03/07 06:46:44;;;;;;;33.60;15.63;;;;;;;3.50;100.00;99192.41;5072841;28;20056;-49
2023/03/07 06:49:14;;;;;;;29.88;12.88;;;;;;;3.50;100.00;99183.72;5072904;28;20045;-50
2023/03/07 06:51:45;;;;;;;31.02;15.30;;;;;;;3.56;100.00;99178.69;5072235;28;20058;-51
2023/03/07 06:54:11;;;;;;;30.85;14.00;;;;;;;3.54;100.00;99193.75;5072738;28;20131;-51
2023/03/07 06:56:38;;;;;;;37.67;16.10;;;;;;;3.55;100.00;99177.06;5072791;28;20485;-50
2023/03/07 06:59:05;;;;;;;38.10;16.33;;;;;;;3.64;100.00;99183.22;5072707;28;20501;-49
2023/03/07 07:01:34;;;;;;;32.85;15.02;;;;;;;3.67;100.00;99179.47;5072103;28;20123;-51
2023/03/07 07:04:02;;;;;;;32.15;15.82;;;;;;;3.56;100.00;99168.22;5071763;28;20106;-51
2023/03/07 07:06:30;;;;;;;37.38;15.30;;;;;;;3.60;100.00;99172.22;5069683;28;20060;-49
2023/03/07 07:08:58;;;;;;;34.20;14.52;;;;;;;3.70;100.00;99174.75;5061544;28;20075;-49
2023/03/07 07:11:29;;;;;;;31.98;15.30;;;;;;;3.65;100.00;99177.81;5057213;28;20035;-49
2023/03/07 07:13:57;;;;;;;36.03;15.75;;;;;;;3.64;100.00;99173.56;5069267;28;20048;-48
2023/03/07 07:16:24;;;;;;;34.92;15.45;;;;;;;3.74;100.00;99170.88;5071130;28;20040;-52
2023/03/07 07:18:51;;;;;;;32.80;14.65;;;;;;;3.72;100.00;99172.00;5071842;28;20072;-48
2023/03/07 07:21:18;;;;;;;28.88;14.75;;;;;;;3.78;100.00;99169.63;5071528;28;20044;-53
2023/03/07 07:23:46;;;;;;;33.80;15.70;;;;;;;3.82;100.00;99159.63;5071361;28;20493;-49
2023/03/07 07:26:13;;;;;;;27.70;11.05;;;;;;;3.73;100.00;99169.22;5070782;28;20059;-57
2023/03/07 07:28:40;;;;;;;31.35;13.95;;;;;;;3.69;100.00;99157.38;5071971;28;20098;-57
2023/03/07 07:31:08;;;;;;;30.48;13.90;;;;;;;3.82;100.00;99165.72;5087756;28;20127;-58
2023/03/07 07:33:35;;;;;;;39.90;14.65;;;;;;;3.73;100.00;99166.59;5075914;28;20036;-58
2023/03/07 07:36:04;;;;;;;34.38;15.02;;;;;;;3.78;100.00;99164.38;5075863;28;20052;-58
2023/03/07 07:38:34;;;;;;;29.85;14.45;;;;;;;3.75;100.00;99169.91;5076136;28;20049;-57
2023/03/07 07:41:01;;;;;;;32.65;14.18;;;;;;;3.76;100.00;99168.91;5068149;28;20106;-57
2023/03/07 07:43:28;;;;;;;30.25;12.90;;;;;;;3.81;100.00;99171.91;5075523;28;20044;-58
2023/03/07 07:46:05;;;;;;;33.63;14.50;;;;;;;3.64;100.00;99173.56;5075572;28;20056;-57
2023/03/07 07:48:32;;;;;;;32.63;14.50;;;;;;;3.69;100.00;99174.91;5075664;28;20098;-58
2023/03/07 07:51:01;;;;;;;33.03;14.23;;;;;;;3.81;100.00;99174.53;5089203;28;20424;-58
2023/03/07 07:53:29;;;;;;;34.63;14.88;;;;;;;3.90;100.00;99164.97;5079163;28;20071;-58
2023/03/07 07:55:56;;;;;;;28.77;12.77;;;;;;;3.88;100.00;99173.97;5066404;28;20106;-48
2023/03/07 07:58:23;;;;;;;34.40;15.15;;;;;;;4.02;100.00;99170.78;5070923;28;20094;-50
2023/03/07 08:00:50;;;;;;;41.90;15.23;;;;;;;3.99;100.00;99169.31;5072399;28;20044;-53
2023/03/07 08:03:17;;;;;;;33.47;13.65;;;;;;;3.93;100.00;99171.69;5068734;28;20062;-52
2023/03/07 08:05:47;;;;;;;31.85;13.45;;;;;;;3.88;100.00;99174.78;5073504;28;20119;-53
2023/03/07 08:08:15;;;;;;;30.42;12.07;;;;;;;3.85;100.00;99173.25;5087754;28;20069;-52
2023/03/07 08:10:43;;;;;;;27.13;12.05;;;;;;;3.89;100.00;99165.91;5058607;28;20131;-50
2023/03/07 08:13:12;;;;;;;26.65;11.85;;;;;;;3.87;100.00;99174.94;5067174;28;20120;-52
2023/03/07 08:15:39;;;;;;;27.48;11.98;;;;;;;3.85;100.00;99175.88;5075896;28;20068;-52
2023/03/07 08:18:07;;;;;;;26.67;12.20;;;;;;;3.84;100.00;99170.81;5066071;28;20648;-50
2023/03/07 08:20:34;;;;;;;27.15;11.80;;;;;;;3.83;100.00;99169.97;5078550;28;20071;-51
2023/03/07 08:23:01;;;;;;;30.20;13.38;;;;;;;3.89;100.00;99170.34;5089378;28;20086;-53
2023/03/07 08:25:28;;;;;;;28.85;12.88;;;;;;;3.82;100.00;99170.97;5068495;28;21276;-51
2023/03/07 08:27:55;;;;;;;29.23;13.70;;;;;;;3.88;100.00;99155.59;5074341;28;20063;-52
2023/03/07 08:30:22;;;;;;;27.77;12.60;;;;;;;3.99;100.00;99166.69;5088219;28;20040;-53
2023/03/07 08:32:51;;;;;;;26.23;11.95;;;;;;;4.05;100.00;99170.50;5074931;28;20486;-51
2023/03/07 08:35:17;;;;;;;26.95;12.13;;;;;;;3.98;100.00;99166.81;5073116;28;20094;-51
2023/03/07 08:37:45;;;;;;;25.17;10.73;;;;;;;3.99;100.00;99165.88;5073057;28;20127;-53
2023/03/07 08:40:13;;;;;;;27.90;12.05;;;;;;;3.96;100.00;99166.16;5078740;28;20040;-50
2023/03/07 08:42:40;;;;;;;25.85;10.70;;;;;;;3.95;100.00;99164.53;5070323;28;20094;-52
2023/03/07 08:45:07;;;;;;;26.20;10.70;;;;;;;4.04;100.00;99163.63;5084872;28;20406;-51
2023/03/07 08:47:33;;;;;;;24.50;10.95;;;;;;;3.99;100.00;99155.38;5071127;28;20098;-52
2023/03/07 08:50:01;;;;;;;25.23;10.85;;;;;;;3.90;100.00;99156.28;5071193;28;20473;-52
2023/03/07 08:52:27;;;;;;;22.90;10.45;;;;;;;4.01;100.00;99161.28;5072146;28;20040;-49
2023/03/07 08:54:54;;;;;;;27.05;11.68;;;;;;;4.07;100.00;99155.44;5074480;28;20044;-51
2023/03/07 08:57:20;;;;;;;26.10;11.50;;;;;;;4.07;100.00;99160.69;5058988;28;20044;-51
2023/03/07 08:59:47;;;;;;;22.05;10.23;;;;;;;3.98;100.00;99156.34;5078394;28;20048;-51
2023/03/07 09:02:14;;;;;;;22.95;10.93;;;;;;;4.04;100.00;99163.63;5053118;28;20037;-53
2023/03/07 09:04:40;;;;;;;21.75;9.65;;;;;;;4.03;100.00;99162.78;5078155;28;20049;-51
2023/03/07 09:07:07;;;;;;;24.10;10.75;;;;;;;4.10;100.00;99163.00;5050618;28;20091;-51
2023/03/07 09:09:34;;;;;;;26.27;11.25;;;;;;;4.08;100.00;99172.03;5059829;28;20053;-52
2023/03/07 09:12:01;;;;;;;23.50;11.27;;;;;;;4.14;100.00;99169.59;5051995;28;20155;-52
2023/03/07 09:14:28;;;;;;;26.15;11.20;;;;;;;4.03;100.00;99172.47;5063684;28;20396;-49
2023/03/07 09:16:55;;;;;;;23.73;11.45;;;;;;;4.05;100.00;99170.50;5064782;28;20043;-52
2023/03/07 09:19:22;;;;;;;18.10;8.60;;;;;;;4.01;100.00;99185.72;5071424;28;20036;-48
2023/03/07 09:21:49;;;;;;;20.73;9.98;;;;;;;3.98;100.00;99185.19;5068926;28;20737;-52
2023/03/07 09:24:16;;;;;;;24.00;10.65;;;;;;;4.04;100.00;99190.69;5068118;28;20106;-51
2023/03/07 09:26:43;;;;;;;20.83;9.88;;;;;;;3.95;100.00;99196.00;5061236;28;20056;-52
2023/03/07 09:29:09;;;;;;;26.77;11.93;;;;;;;3.94;100.00;99192.53;5076216;28;20056;-50
2023/03/07 09:31:36;;;;;;;25.40;11.63;;;;;;;4.05;100.00;99181.00;5080881;28;20049;-50
2023/03/07 09:34:04;;;;;;;27.40;11.18;;;;;;;3.90;100.00;99193.00;5069989;28;20052;-48
2023/03/07 09:36:30;;;;;;;25.52;11.10;;;;;;;3.81;100.00;99187.66;5077037;28;20555;-50
2023/03/07 09:38:57;;;;;;;22.85;11.10;;;;;;;3.84;100.00;99194.44;5081114;28;20051;-49
2023/03/07 09:41:54;;;;;;;19.45;8.95;;;;;;;3.84;100.00;99191.81;5071378;28;20485;-49
2023/03/07 09:45:00;;;;;;;23.88;11.77;;;;;;;3.85;100.00;99190.81;5074076;28;20093;-51
2023/03/07 09:48:20;;;;;;;26.70;11.48;;;;;;;3.91;100.00;99181.53;5075678;28;20063;-50
2023/03/07 09:50:57;;;;;;;18.60;9.50;;;;;;;3.93;100.00;99190.06;5070542;28;20105;-51
2023/03/07 09:53:55;;;;;;;28.05;11.02;;;;;;;3.94;100.00;99199.59;5055729;28;20187;-51
2023/03/07 09:56:43;;;;;;;15.05;6.22;;;;;;;3.78;100.00;99195.84;5063035;28;20079;-50
2023/03/07 09:59:21;;;;;;;13.90;6.03;;;;;;;3.70;100.00;99205.41;5058518;28;20052;-49
2023/03/07 10:02:00;;;;;;;12.70;5.28;;;;;;;3.59;100.00;99209.88;5060987;28;20048;-55
2023/03/07 10:04:37;;;;;;;10.93;4.57;;;;;;;3.48;100.00;99210.09;5059476;28;20041;-52
2023/03/07 10:07:04;;;;;;;10.90;4.05;;;;;;;3.38;100.00;99220.59;5065933;28;20071;-52
2023/03/07 10:09:30;;;;;;;12.25;4.28;;;;;;;3.21;100.00;99219.56;5077333;28;20071;-52
2023/03/07 10:15:14;;;;;;;10.57;3.97;;;;;;;3.14;100.00;99226.34;5095561;27;20136;-51
2023/03/07 10:18:14;;;;;;;8.65;3.50;;;;;;;3.28;100.00;99229.50;5072905;28;20527;-49
2023/03/07 10:23:51;;;;;;;8.15;3.67;;;;;;;3.11;100.00;99231.06;5068913;28;20368;-50
2023/03/07 10:26:31;;;;;;;7.25;3.40;;;;;;;3.07;100.00;99238.38;5069247;28;20132;-50
2023/03/07 10:29:08;;;;;;;13.98;3.97;;;;;;;3.13;100.00;99234.34;5053157;28;20508;-50
2023/03/07 10:31:40;;;;;;;8.75;3.50;;;;;;;3.10;100.00;99234.66;5068120;28;20045;-51
2023/03/07 10:34:15;;;;;;;7.93;3.65;;;;;;;3.14;100.00;99244.69;5071011;28;20087;-52
2023/03/07 10:36:56;;;;;;;9.02;3.78;;;;;;;3.17;100.00;99236.56;5056993;28;20119;-50
2023/03/07 10:39:42;;;;;;;10.25;3.55;;;;;;;3.12;100.00;99245.81;5061834;28;20055;-49
2023/03/07 10:42:12;;;;;;;9.38;3.50;;;;;;;3.20;100.00;99238.91;5073672;28;20045;-50
2023/03/07 10:44:40;;;;;;;7.70;3.22;;;;;;;3.17;100.00;99244.44;5056857;28;20133;-50
2023/03/07 10:47:17;;;;;;;8.02;3.55;;;;;;;3.11;100.00;99239.78;5052848;28;20090;-53
2023/03/07 10:49:46;;;;;;;12.63;3.47;;;;;;;3.24;100.00;99239.44;5077546;28;20083;-51
2023/03/07 10:52:38;;;;;;;12.15;3.42;;;;;;;3.03;100.00;99245.69;5067592;28;20123;-51
2023/03/07 10:58:28;;;;;;;15.98;3.15;;;;;;;3.03;100.00;99242.25;5054844;28;20431;-49
2023/03/07 11:01:17;;;;;;;8.15;3.20;;;;;;;3.05;100.00;99248.19;5070300;28;20045;-51
2023/03/07 11:03:56;;;;;;;7.00;2.88;;;;;;;2.94;100.00;99249.16;5055350;28;20072;-52
2023/03/07 11:06:27;;;;;;;9.95;2.63;;;;;;;2.92;100.00;99256.34;5063628;28;20048;-49
2023/03/07 11:08:55;;;;;;;7.68;2.92;;;;;;;2.86;100.00;99259.53;5063678;28;20049;-52
2023/03/07 11:11:29;;;;;;;10.23;2.90;;;;;;;2.80;100.00;99258.31;5067786;28;20068;-51
2023/03/07 11:14:12;;;;;;;7.85;2.72;;;;;;;2.71;100.00;99253.06;5045669;28;20174;-49
2023/03/07 11:16:51;;;;;;;8.02;3.03;;;;;;;2.61;100.00;99256.53;5069109;28;20033;-48
2023/03/07 11:19:40;;;;;;;7.95;3.08;;;;;;;2.57;100.00;99249.09;5051589;28;20139;-49
2023/03/07 11:22:28;;;;;;;8.35;2.95;;;;;;;2.63;100.00;99253.78;5064213;28;20045;-51
2023/03/07 11:25:01;;;;;;;7.95;3.15;;;;;;;2.68;100.00;99259.44;5061701;28;20076;-50
2023/03/07 11:27:37;;;;;;;7.45;3.13;;;;;;;2.78;100.00;99254.16;5066177;28;20120;-49
2023/03/07 11:30:44;;;;;;;7.10;2.78;;;;;;;2.71;100.00;99253.06;5052572;28;20202;-54
2023/03/07 11:33:26;;;;;;;6.95;2.90;;;;;;;2.66;100.00;99251.69;5056409;28;20504;-49
2023/03/07 11:36:00;;;;;;;8.68;3.50;;;;;;;2.56;100.00;99252.69;5059267;28;20045;-49
2023/03/07 11:38:34;;;;;;;10.15;3.38;;;;;;;2.71;100.00;99253.91;5059473;28;20049;-51
2023/03/07 11:41:10;;;;;;;10.02;3.67;;;;;;;2.64;100.00;99247.59;5048577;28;20045;-51
2023/03/07 11:44:10;;;;;;;9.40;3.20;;;;;;;2.65;100.00;99251.84;5051059;28;20071;-53